createdAt,value
2018-09-29T00:00:29.449Z,87.90
2018-09-29T00:02:58.794Z,85.50
2018-09-29T00:05:29.152Z,86.60
2018-09-29T00:07:58.676Z,86.40
2018-09-29T00:10:28.681Z,85.80
2018-09-29T00:12:57.964Z,85.60
2018-09-29T00:15:27.273Z,86.20
2018-09-29T00:17:57.169Z,86.80
2018-09-29T00:20:27.196Z,86.40
2018-09-29T00:22:57.204Z,86.80
2018-09-29T00:25:27.384Z,86.20
2018-09-29T00:27:56.979Z,85.70
2018-09-29T00:30:27.395Z,85.60
2018-09-29T00:32:57.303Z,85.50
2018-09-29T00:35:26.810Z,86.00
2018-09-29T00:37:56.193Z,87.40
2018-09-29T00:40:26.396Z,86.20
2018-09-29T00:42:55.716Z,85.60
2018-09-29T00:45:26.021Z,84.90
2018-09-29T00:47:55.217Z,84.40
2018-09-29T00:50:25.401Z,84.40
2018-09-29T00:52:54.957Z,83.60
2018-09-29T00:55:24.256Z,83.50
2018-09-29T00:57:54.121Z,83.50
2018-09-29T01:00:23.709Z,84.60
2018-09-29T01:02:52.947Z,83.00
2018-09-29T01:05:22.076Z,85.10
2018-09-29T01:07:51.296Z,84.10
2018-09-29T01:10:20.555Z,83.80
2018-09-29T01:12:49.823Z,83.80
2018-09-29T01:15:19.568Z,82.80
2018-09-29T01:17:49.173Z,83.90
2018-09-29T01:20:18.352Z,83.20
2018-09-29T01:22:47.770Z,84.80
2018-09-29T01:25:17.105Z,85.10
2018-09-29T01:27:47.128Z,85.50
2018-09-29T01:30:16.284Z,86.00
2018-09-29T01:32:45.661Z,84.40
2018-09-29T01:35:15.348Z,84.60
2018-09-29T01:37:45.708Z,85.10
2018-09-29T01:40:15.000Z,84.70
2018-09-29T01:42:44.161Z,84.90
2018-09-29T01:45:13.845Z,84.30
2018-09-29T01:47:43.505Z,84.60
2018-09-29T01:50:12.891Z,83.20
2018-09-29T01:52:42.257Z,83.80
2018-09-29T01:55:11.962Z,82.50
2018-09-29T01:57:41.184Z,83.30
2018-09-29T02:00:10.925Z,82.60
2018-09-29T02:02:40.314Z,83.00
2018-09-29T02:05:09.538Z,82.80
2018-09-29T02:07:38.733Z,82.90
2018-09-29T02:10:07.982Z,83.00
2018-09-29T02:12:37.176Z,82.40
2018-09-29T02:15:06.769Z,82.30
2018-09-29T02:17:36.530Z,82.50
2018-09-29T02:20:05.831Z,82.10
2018-09-29T02:22:35.005Z,82.50
2018-09-29T02:25:04.605Z,82.10
2018-09-29T02:27:34.437Z,82.60
2018-09-29T02:30:04.015Z,84.00
2018-09-29T02:32:33.254Z,85.20
2018-09-29T02:35:02.835Z,85.90
2018-09-29T02:37:32.941Z,88.00
2018-09-29T02:40:03.165Z,86.60
2018-09-29T02:42:32.725Z,87.20
2018-09-29T02:45:01.936Z,86.00
2018-09-29T02:48:33.874Z,85.70
2018-09-29T02:51:03.386Z,84.40
2018-09-29T02:53:33.057Z,83.30
2018-09-29T02:56:02.270Z,83.50
2018-09-29T02:58:31.769Z,84.00
2018-09-29T03:01:02.135Z,84.60
2018-09-29T03:03:31.875Z,83.90
2018-09-29T03:06:01.280Z,83.00
2018-09-29T03:08:30.878Z,82.90
2018-09-29T03:11:00.228Z,82.30
2018-09-29T03:13:29.382Z,82.20
2018-09-29T03:15:58.919Z,82.90
2018-09-29T03:18:28.411Z,83.20
2018-09-29T03:20:57.700Z,83.90
2018-09-29T03:23:27.030Z,82.00
2018-09-29T03:25:56.479Z,81.40
2018-09-29T03:28:26.119Z,82.50
2018-09-29T03:30:55.387Z,82.90
2018-09-29T03:33:27.139Z,82.30
2018-09-29T03:35:57.310Z,81.50
2018-09-29T03:38:26.767Z,80.80
2018-09-29T03:40:57.796Z,82.10
2018-09-29T03:43:27.206Z,82.00
2018-09-29T03:45:56.396Z,81.40
2018-09-29T03:48:25.719Z,81.90
2018-09-29T03:50:55.266Z,83.20
2018-09-29T03:53:24.540Z,83.00
2018-09-29T03:55:53.951Z,81.40
2018-09-29T03:58:23.847Z,83.00
2018-09-29T04:00:54.450Z,82.00
2018-09-29T04:03:24.017Z,84.00
2018-09-29T04:05:53.451Z,83.00
2018-09-29T04:08:23.151Z,82.60
2018-09-29T04:10:52.481Z,82.50
2018-09-29T04:13:21.662Z,82.30
2018-09-29T04:15:50.895Z,82.40
2018-09-29T04:18:20.671Z,82.50
2018-09-29T04:20:51.903Z,81.60
2018-09-29T04:23:21.244Z,83.40
2018-09-29T04:25:50.365Z,83.40
2018-09-29T04:28:22.082Z,82.40
2018-09-29T04:30:51.384Z,81.30
2018-09-29T04:33:21.031Z,81.90
2018-09-29T04:35:50.658Z,82.60
2018-09-29T04:38:19.846Z,83.50
2018-09-29T04:40:49.502Z,82.80
2018-09-29T04:43:20.415Z,82.40
2018-09-29T04:45:49.496Z,83.00
2018-09-29T04:48:19.408Z,81.70
2018-09-29T04:50:48.830Z,81.50
2018-09-29T04:53:18.086Z,82.00
2018-09-29T04:55:48.318Z,80.40
2018-09-29T04:58:19.077Z,79.60
2018-09-29T05:00:48.856Z,80.80
2018-09-29T05:03:18.500Z,79.40
2018-09-29T05:05:47.833Z,80.70
2018-09-29T05:09:46.341Z,80.40
2018-09-29T05:12:15.812Z,81.30
2018-09-29T05:14:45.026Z,81.30
2018-09-29T05:17:14.161Z,82.00
2018-09-29T05:19:47.580Z,81.40
2018-09-29T05:22:16.750Z,81.70
2018-09-29T05:24:46.681Z,80.70
2018-09-29T05:27:16.178Z,80.50
2018-09-29T05:29:46.102Z,79.10
2018-09-29T05:32:17.069Z,80.30
2018-09-29T05:34:46.423Z,81.20
2018-09-29T05:37:16.170Z,81.00
2018-09-29T05:39:45.343Z,80.80
2018-09-29T05:42:14.812Z,80.40
2018-09-29T05:44:44.262Z,79.10
2018-09-29T05:47:14.282Z,79.70
2018-09-29T05:49:44.149Z,79.80
2018-09-29T05:52:13.733Z,79.80
2018-09-29T05:54:43.175Z,80.10
2018-09-29T05:57:12.525Z,80.60
2018-09-29T05:59:41.765Z,80.50
2018-09-29T06:02:11.660Z,80.20
2018-09-29T06:04:40.991Z,80.00
2018-09-29T06:07:10.366Z,79.70
2018-09-29T06:09:40.086Z,79.90
2018-09-29T06:12:09.414Z,81.70
2018-09-29T06:14:39.173Z,82.10
2018-09-29T06:17:08.412Z,81.40
2018-09-29T06:19:37.620Z,80.10
2018-09-29T06:22:07.750Z,80.20
2018-09-29T06:24:37.371Z,79.10
2018-09-29T06:27:06.707Z,79.50
2018-09-29T06:29:36.280Z,79.20
2018-09-29T06:32:06.907Z,79.60
2018-09-29T06:34:36.653Z,79.10
2018-09-29T06:37:05.979Z,78.00
2018-09-29T06:39:36.078Z,79.40
2018-09-29T06:42:05.828Z,80.80
2018-09-29T06:44:36.210Z,81.30
2018-09-29T06:47:06.710Z,80.30
2018-09-29T06:49:36.210Z,79.90
2018-09-29T06:52:06.652Z,79.00
2018-09-29T06:54:36.070Z,80.40
2018-09-29T06:57:07.145Z,79.00
2018-09-29T06:59:36.758Z,78.30
2018-09-29T07:02:05.958Z,78.00
2018-09-29T07:04:35.151Z,78.90
2018-09-29T07:07:05.446Z,80.00
2018-09-29T07:09:35.833Z,80.00
2018-09-29T07:12:05.180Z,80.50
2018-09-29T07:14:34.400Z,80.20
2018-09-29T07:17:05.770Z,80.00
2018-09-29T07:19:35.875Z,80.10
2018-09-29T07:22:05.938Z,80.70
2018-09-29T07:24:35.341Z,80.50
2018-09-29T07:27:04.475Z,80.90
2018-09-29T07:29:33.770Z,83.10
2018-09-29T07:32:04.604Z,84.90
2018-09-29T07:34:33.841Z,85.10
2018-09-29T07:37:03.304Z,84.40
2018-09-29T07:39:32.727Z,85.10
2018-09-29T07:42:03.394Z,85.70
2018-09-29T07:44:39.750Z,86.90
2018-09-29T07:47:09.032Z,85.70
2018-09-29T07:49:41.207Z,87.70
2018-09-29T07:52:10.844Z,87.80
2018-09-29T07:54:41.314Z,88.60
2018-09-29T07:57:10.783Z,90.10
2018-09-29T07:59:40.498Z,91.30
2018-09-29T08:02:10.662Z,90.70
2018-09-29T08:04:39.883Z,90.70
2018-09-29T08:07:12.776Z,90.00
2018-09-29T08:09:42.246Z,88.20
2018-09-29T08:12:12.253Z,89.80
2018-09-29T08:14:44.744Z,90.30
2018-09-29T08:17:14.199Z,91.80
2018-09-29T08:19:43.456Z,92.10
2018-09-29T08:22:13.265Z,93.00
2018-09-29T08:24:43.165Z,94.50
2018-09-29T08:27:13.141Z,96.90
2018-09-29T08:29:43.178Z,97.40
2018-09-29T08:32:15.327Z,96.50
2018-09-29T08:34:48.302Z,95.70
2018-09-29T08:37:19.021Z,93.80
2018-09-29T08:39:49.077Z,94.80
2018-09-29T08:42:18.674Z,94.50
2018-09-29T08:44:48.456Z,95.40
2018-09-29T08:47:18.766Z,93.30
2018-09-29T08:49:48.300Z,91.50
2018-09-29T08:52:19.666Z,91.20
2018-09-29T08:54:49.402Z,91.40
2018-09-29T08:57:20.184Z,91.30
2018-09-29T08:59:49.749Z,90.80
2018-09-29T09:02:21.005Z,90.10
2018-09-29T09:04:52.204Z,90.20
2018-09-29T09:07:22.118Z,90.30
2018-09-29T09:09:52.987Z,90.30
2018-09-29T09:12:22.725Z,91.10
2018-09-29T09:15:00.711Z,90.30
2018-09-29T09:17:30.527Z,88.00
2018-09-29T09:20:07.308Z,89.40
2018-09-29T09:22:40.057Z,89.40
2018-09-29T09:25:11.369Z,89.70
2018-09-29T09:27:43.185Z,89.10
2018-09-29T09:30:13.338Z,90.00
2018-09-29T09:32:44.765Z,89.70
2018-09-29T09:35:14.206Z,88.30
2018-09-29T09:37:44.592Z,87.00
2018-09-29T09:40:17.360Z,89.00
2018-09-29T09:42:47.021Z,85.90
2018-09-29T09:45:21.348Z,84.60
2018-09-29T09:47:52.425Z,84.30
2018-09-29T09:50:22.441Z,84.60
2018-09-29T09:52:54.972Z,85.80
2018-09-29T09:55:24.226Z,82.70
2018-09-29T09:57:53.653Z,82.60
2018-09-29T10:00:27.478Z,82.50
2018-09-29T10:03:02.676Z,81.00
2018-09-29T10:05:33.219Z,80.10
2018-09-29T10:08:03.107Z,79.50
2018-09-29T10:10:34.160Z,80.00
2018-09-29T10:13:04.266Z,79.10
2018-09-29T10:15:35.376Z,76.60
2018-09-29T10:18:05.628Z,75.60
2018-09-29T10:20:36.538Z,75.70
2018-09-29T10:23:06.641Z,75.40
2018-09-29T10:25:36.086Z,73.90
2018-09-29T10:28:05.650Z,72.70
2018-09-29T10:30:38.961Z,74.10
2018-09-29T10:33:09.316Z,69.60
2018-09-29T10:35:39.730Z,67.10
2018-09-29T10:38:10.055Z,70.20
2018-09-29T10:40:40.760Z,69.60
2018-09-29T10:43:11.000Z,67.50
2018-09-29T10:45:42.666Z,68.60
2018-09-29T10:48:12.210Z,66.90
2018-09-29T10:50:42.779Z,63.00
2018-09-29T10:53:13.743Z,62.40
2018-09-29T10:55:45.240Z,61.40
2018-09-29T10:58:16.222Z,62.60
2018-09-29T11:00:47.817Z,61.90
2018-09-29T11:03:18.440Z,61.00
2018-09-29T11:05:52.310Z,59.10
2018-09-29T11:08:21.610Z,59.10
2018-09-29T11:10:51.349Z,57.50
2018-09-29T11:13:22.120Z,57.50
2018-09-29T11:15:52.317Z,57.30
2018-09-29T11:18:21.948Z,55.70
2018-09-29T11:20:51.797Z,55.40
2018-09-29T11:23:21.178Z,56.10
2018-09-29T11:25:50.948Z,56.30
2018-09-29T11:28:21.554Z,57.60
2018-09-29T11:30:51.649Z,57.70
2018-09-29T11:33:21.232Z,54.00
2018-09-29T11:35:52.187Z,52.90
2018-09-29T11:38:22.776Z,53.00
2018-09-29T11:40:54.583Z,51.80
2018-09-29T11:43:25.137Z,51.00
2018-09-29T11:45:58.103Z,50.60
2018-09-29T11:48:33.823Z,51.60
2018-09-29T11:51:04.135Z,53.30
2018-09-29T11:53:35.281Z,52.60
2018-09-29T11:56:07.306Z,52.40
2018-09-29T11:58:37.924Z,52.70
2018-09-29T12:01:12.224Z,53.00
2018-09-29T12:03:42.334Z,52.10
2018-09-29T12:06:13.113Z,51.70
2018-09-29T12:08:43.780Z,52.50
2018-09-29T12:11:14.802Z,52.00
2018-09-29T12:15:15.105Z,52.40
2018-09-29T12:17:45.185Z,51.70
2018-09-29T12:20:15.147Z,51.40
2018-09-29T12:22:45.004Z,51.20
2018-09-29T12:25:18.676Z,50.40
2018-09-29T12:27:48.359Z,47.50
2018-09-29T12:30:20.611Z,48.70
2018-09-29T12:32:51.029Z,47.60
2018-09-29T12:35:21.076Z,47.80
2018-09-29T12:37:50.575Z,49.50
2018-09-29T12:40:20.671Z,49.90
2018-09-29T12:42:50.617Z,49.10
2018-09-29T12:45:20.153Z,49.90
2018-09-29T12:47:50.487Z,50.30
2018-09-29T12:50:21.273Z,50.40
2018-09-29T12:52:52.326Z,50.40
2018-09-29T12:55:25.320Z,49.90
2018-09-29T13:00:40.797Z,49.50
2018-09-29T13:03:13.077Z,51.40
2018-09-29T13:05:44.819Z,50.90
2018-09-29T13:08:23.372Z,51.10
2018-09-29T13:10:54.563Z,50.00
2018-09-29T13:13:25.459Z,48.90
2018-09-29T13:15:59.384Z,48.80
2018-09-29T13:18:30.113Z,48.40
2018-09-29T13:21:01.348Z,47.90
2018-09-29T13:23:31.095Z,47.90
2018-09-29T13:26:01.323Z,49.00
2018-09-29T13:28:32.344Z,48.00
2018-09-29T13:31:01.847Z,47.40
2018-09-29T13:33:33.185Z,47.30
2018-09-29T13:36:04.208Z,47.50
2018-09-29T13:38:37.157Z,47.20
2018-09-29T13:41:09.804Z,46.20
2018-09-29T13:43:43.736Z,47.30
2018-09-29T13:46:15.111Z,46.60
2018-09-29T13:48:50.932Z,46.00
2018-09-29T13:51:24.948Z,45.70
2018-09-29T13:53:54.657Z,45.90
2018-09-29T13:56:24.967Z,45.90
2018-09-29T13:58:55.859Z,46.10
2018-09-29T14:01:26.467Z,45.30
2018-09-29T14:03:56.737Z,45.90
2018-09-29T14:06:26.538Z,44.00
2018-09-29T14:08:56.570Z,44.10
2018-09-29T14:11:32.641Z,43.30
2018-09-29T14:14:01.951Z,42.50
2018-09-29T14:16:34.655Z,42.20
2018-09-29T14:19:04.698Z,42.30
2018-09-29T14:21:34.760Z,42.40
2018-09-29T14:24:08.091Z,42.10
2018-09-29T14:26:40.703Z,42.20
2018-09-29T14:29:13.401Z,42.80
2018-09-29T14:31:48.818Z,41.50
2018-09-29T14:34:20.523Z,42.20
2018-09-29T14:36:54.016Z,43.00
2018-09-29T14:39:25.980Z,43.00
2018-09-29T14:41:55.879Z,43.10
2018-09-29T14:44:26.003Z,43.60
2018-09-29T14:46:56.397Z,43.60
2018-09-29T14:49:26.825Z,44.80
2018-09-29T14:51:56.684Z,44.80
2018-09-29T14:54:27.741Z,45.50
2018-09-29T14:56:59.091Z,43.40
2018-09-29T14:59:29.141Z,44.20
2018-09-29T15:01:59.652Z,44.00
2018-09-29T15:04:32.080Z,42.20
2018-09-29T15:07:06.257Z,42.20
2018-09-29T15:09:37.237Z,43.30
2018-09-29T15:12:07.565Z,44.30
2018-09-29T15:14:39.469Z,44.30
2018-09-29T15:17:09.009Z,44.20
2018-09-29T15:19:38.440Z,43.80
2018-09-29T15:22:10.375Z,43.80
2018-09-29T15:24:41.610Z,44.80
2018-09-29T15:27:11.759Z,43.60
2018-09-29T15:29:41.881Z,45.00
2018-09-29T15:32:11.372Z,43.20
2018-09-29T15:34:45.727Z,42.90
2018-09-29T15:37:15.104Z,43.60
2018-09-29T15:39:45.172Z,44.40
2018-09-29T15:42:15.215Z,44.80
2018-09-29T15:44:44.662Z,46.10
2018-09-29T15:47:17.031Z,47.30
2018-09-29T15:49:46.564Z,48.30
2018-09-29T15:52:17.661Z,49.20
2018-09-29T15:54:49.231Z,50.30
2018-09-29T15:57:25.261Z,52.00
2018-09-29T15:59:57.184Z,50.70
2018-09-29T16:02:28.130Z,50.20
2018-09-29T16:04:59.166Z,50.20
2018-09-29T16:07:31.186Z,50.30
2018-09-29T16:10:02.032Z,50.80
2018-09-29T16:12:31.670Z,51.00
2018-09-29T16:15:01.558Z,51.20
2018-09-29T16:17:31.021Z,51.90
2018-09-29T16:20:04.454Z,51.10
2018-09-29T16:22:37.202Z,51.80
2018-09-29T16:25:08.309Z,51.60
2018-09-29T16:27:41.350Z,52.00
2018-09-29T16:30:11.253Z,52.00
2018-09-29T16:32:43.641Z,51.90
2018-09-29T16:35:15.048Z,52.20
2018-09-29T16:37:46.372Z,52.40
2018-09-29T16:40:15.929Z,52.30
2018-09-29T16:42:47.269Z,52.30
2018-09-29T16:45:17.138Z,52.30
2018-09-29T16:47:47.740Z,52.50
2018-09-29T16:50:18.061Z,53.30
2018-09-29T16:52:47.345Z,53.80
2018-09-29T16:55:16.541Z,54.80
2018-09-29T16:57:46.684Z,54.20
2018-09-29T17:00:16.115Z,55.70
2018-09-29T17:02:46.891Z,56.20
2018-09-29T17:05:17.250Z,56.80
2018-09-29T17:07:46.618Z,56.80
2018-09-29T17:10:17.668Z,57.20
2018-09-29T17:12:50.498Z,57.50
2018-09-29T17:15:20.806Z,57.40
2018-09-29T17:17:50.766Z,58.80
2018-09-29T17:20:21.034Z,59.20
2018-09-29T17:22:50.310Z,59.50
2018-09-29T17:25:19.525Z,60.20
2018-09-29T17:27:49.738Z,60.50
2018-09-29T17:30:19.165Z,61.00
2018-09-29T17:32:48.854Z,61.20
2018-09-29T17:35:19.675Z,61.70
2018-09-29T17:37:53.656Z,61.90
2018-09-29T17:40:23.777Z,62.20
2018-09-29T17:42:53.992Z,62.30
2018-09-29T17:45:24.756Z,63.40
2018-09-29T17:47:55.694Z,64.00
2018-09-29T17:50:27.295Z,64.40
2018-09-29T17:52:58.690Z,64.20
2018-09-29T17:55:30.157Z,64.60
2018-09-29T17:57:59.824Z,65.10
2018-09-29T18:00:29.868Z,65.30
2018-09-29T18:02:59.570Z,65.70
2018-09-29T18:05:30.452Z,66.00
2018-09-29T18:07:59.802Z,65.60
2018-09-29T18:10:30.765Z,66.00
2018-09-29T18:13:01.697Z,66.20
2018-09-29T18:15:32.452Z,66.80
2018-09-29T18:18:04.111Z,66.70
2018-09-29T18:20:35.209Z,67.20
2018-09-29T18:23:04.762Z,68.30
2018-09-29T18:25:37.554Z,68.20
2018-09-29T18:28:07.789Z,68.80
2018-09-29T18:30:38.341Z,68.60
2018-09-29T18:33:08.741Z,69.90
2018-09-29T18:35:38.326Z,68.80
2018-09-29T18:38:08.142Z,68.20
2018-09-29T18:40:38.788Z,70.50
2018-09-29T18:43:09.730Z,68.00
2018-09-29T18:45:40.613Z,68.60
2018-09-29T18:48:11.454Z,68.40
2018-09-29T18:50:41.805Z,68.20
2018-09-29T18:53:11.279Z,69.90
2018-09-29T18:55:43.185Z,68.70
2018-09-29T18:58:14.540Z,67.60
2018-09-29T19:00:44.452Z,67.20
2018-09-29T19:03:14.756Z,66.90
2018-09-29T19:05:45.733Z,65.80
2018-09-29T19:08:31.422Z,67.50
2018-09-29T19:11:03.979Z,67.60
2018-09-29T19:13:38.878Z,66.00
2018-09-29T19:16:09.325Z,65.80
2018-09-29T19:18:39.995Z,66.70
2018-09-29T19:21:11.584Z,65.90
2018-09-29T19:23:41.445Z,66.00
2018-09-29T19:26:12.216Z,66.20
2018-09-29T19:28:42.696Z,66.10
2018-09-29T19:31:13.178Z,65.80
2018-09-29T19:33:43.208Z,66.10
2018-09-29T19:36:15.443Z,68.20
2018-09-29T19:38:46.205Z,65.50
2018-09-29T19:41:16.365Z,65.50
2018-09-29T19:43:46.638Z,65.20
2018-09-29T19:46:22.109Z,65.10
2018-09-29T19:48:52.750Z,65.10
2018-09-29T19:51:23.358Z,65.40
2018-09-29T19:53:53.556Z,65.10
2018-09-29T19:56:30.494Z,65.10
2018-09-29T19:59:02.451Z,65.10
2018-09-29T20:01:36.187Z,65.00
2018-09-29T20:04:06.861Z,65.40
2018-09-29T20:09:17.337Z,65.50
2018-09-29T20:11:50.781Z,65.80
2018-09-29T20:14:20.193Z,65.70
2018-09-29T20:16:50.407Z,65.50
2018-09-29T20:19:19.973Z,64.90
2018-09-29T20:21:49.441Z,65.80
2018-09-29T20:24:21.222Z,65.40
2018-09-29T20:26:51.143Z,65.70
2018-09-29T20:29:21.385Z,66.00
2018-09-29T20:31:52.382Z,65.10
2018-09-29T20:34:25.201Z,65.10
2018-09-29T20:36:57.182Z,65.00
2018-09-29T20:39:28.254Z,65.70
2018-09-29T20:42:01.512Z,65.20
2018-09-29T20:44:32.555Z,66.50
2018-09-29T20:49:37.730Z,67.40
2018-09-29T20:52:07.317Z,67.50
2018-09-29T20:54:39.420Z,67.90
2018-09-29T20:57:10.103Z,67.50
2018-09-29T20:59:39.339Z,67.70
2018-09-29T21:02:08.598Z,67.50
2018-09-29T21:04:38.833Z,67.10
2018-09-29T21:07:07.994Z,66.90
2018-09-29T21:09:40.353Z,66.80
2018-09-29T21:12:10.109Z,67.10
2018-09-29T21:14:39.192Z,67.30
2018-09-29T21:17:08.363Z,66.40
2018-09-29T21:19:38.773Z,66.60
2018-09-29T21:22:09.330Z,66.60
2018-09-29T21:24:38.462Z,66.20
2018-09-29T21:27:08.177Z,66.40
2018-09-29T21:29:37.709Z,66.50
2018-09-29T21:32:07.032Z,66.80
2018-09-29T21:34:37.172Z,67.20
2018-09-29T21:37:06.387Z,67.20
2018-09-29T21:39:36.725Z,67.60
2018-09-29T21:42:07.198Z,67.70
2018-09-29T21:44:36.401Z,67.50
2018-09-29T21:47:06.226Z,66.50
2018-09-29T21:49:35.477Z,67.10
2018-09-29T21:52:04.797Z,66.80
2018-09-29T21:54:34.083Z,66.70
2018-09-29T21:57:03.755Z,67.20
2018-09-29T21:59:33.726Z,67.20
2018-09-29T22:02:02.910Z,67.00
2018-09-29T22:04:32.465Z,67.40
2018-09-29T22:07:03.870Z,66.90
2018-09-29T22:09:34.557Z,66.80
2018-09-29T22:12:03.741Z,66.60
2018-09-29T22:14:34.221Z,67.10
2018-09-29T22:17:06.608Z,66.90
2018-09-29T22:19:35.735Z,67.00
2018-09-29T22:22:05.300Z,67.10
2018-09-29T22:24:35.338Z,67.30
2018-09-29T22:27:04.553Z,66.80
2018-09-29T22:29:34.197Z,67.10
2018-09-29T22:32:03.607Z,67.50
2018-09-29T22:34:33.417Z,67.80
2018-09-29T22:37:03.720Z,67.60
2018-09-29T22:39:33.240Z,68.50
2018-09-29T22:42:02.801Z,68.10
2018-09-29T22:44:31.978Z,68.60
2018-09-29T22:47:01.305Z,68.60
2018-09-29T22:49:31.846Z,68.90
2018-09-29T22:52:06.452Z,69.10
2018-09-29T22:54:37.050Z,69.40
2018-09-29T22:57:06.188Z,69.60
2018-09-29T22:59:36.638Z,69.50
2018-09-29T23:02:06.022Z,68.00
2018-09-29T23:04:35.500Z,69.20
2018-09-29T23:07:05.658Z,69.00
2018-09-29T23:09:35.172Z,70.10
2018-09-29T23:12:04.345Z,69.40
2018-09-29T23:14:33.846Z,69.60
2018-09-29T23:17:03.221Z,69.60
2018-09-29T23:19:34.185Z,70.40
2018-09-29T23:22:03.778Z,70.00
2018-09-29T23:24:33.073Z,69.70
2018-09-29T23:27:02.354Z,69.80
2018-09-29T23:29:31.527Z,69.40
2018-09-29T23:32:01.986Z,68.90
2018-09-29T23:34:31.359Z,69.20
2018-09-29T23:37:00.444Z,69.40
2018-09-29T23:39:29.765Z,69.70
2018-09-29T23:41:59.186Z,69.90
2018-09-29T23:44:29.093Z,70.00
2018-09-29T23:46:58.755Z,70.40
2018-09-29T23:49:29.182Z,70.70
2018-09-29T23:51:59.103Z,71.10
2018-09-29T23:54:28.735Z,70.30
2018-09-29T23:56:58.298Z,70.00
2018-09-29T23:59:27.484Z,69.80
